Time;durP1;ratioP1;P1;durP2;ratioP2;P2;SDS_P1;SDS_P2;PMS_P1;PMS_P2;Temp;Humidity;BMP_temperature;BMP_pressure;BME280_temperature;BME280_humidity;BME280_pressure;Samples;Min_cycle;Max_cycle;Signal;HPM_P1;HPM_P2
2021/04/16 00:01:25;;;;;;;8.20;6.37;;;;;;;;;;3566853;40;20764;-72
2021/04/16 00:03:51;;;;;;;8.23;5.47;;;;;;;;;;3570421;40;20417;-72
2021/04/16 00:06:17;;;;;;;14.63;6.57;;;;;;;;;;3556076;40;20414;-72
2021/04/16 00:08:43;;;;;;;7.93;6.17;;;;;;;;;;3570927;39;20415;-72
2021/04/16 00:11:12;;;;;;;7.27;6.57;;;;;;;;;;3555926;40;20864;-72
2021/04/16 00:13:38;;;;;;;11.03;6.57;;;;;;;;;;3570544;40;20376;-72
2021/04/16 00:16:06;;;;;;;6.67;5.97;;;;;;;;;;3566641;40;20402;-72
2021/04/16 00:18:32;;;;;;;6.60;6.00;;;;;;;;;;3569915;40;20384;-72
2021/04/16 00:20:59;;;;;;;12.10;6.40;;;;;;;;;;3565198;40;20526;-72
2021/04/16 00:23:25;;;;;;;5.70;5.20;;;;;;;;;;3557570;40;20440;-72
2021/04/16 00:25:52;;;;;;;6.37;5.60;;;;;;;;;;3563084;40;20416;-72
2021/04/16 00:28:18;;;;;;;10.33;6.17;;;;;;;;;;3570619;40;20372;-72
2021/04/16 00:30:58;;;;;;;6.60;5.60;;;;;;;;;;3556893;40;20850;-72
2021/04/16 00:33:25;;;;;;;6.13;5.53;;;;;;;;;;3566168;40;20419;-72
2021/04/16 00:35:51;;;;;;;5.90;5.40;;;;;;;;;;3571131;40;20376;-72
2021/04/16 00:38:18;;;;;;;7.07;5.90;;;;;;;;;;3567979;40;20409;-72
2021/04/16 00:40:46;;;;;;;6.23;5.27;;;;;;;;;;3567669;40;20528;-72
2021/04/16 00:43:13;;;;;;;6.20;5.53;;;;;;;;;;3565938;40;20403;-72
2021/04/16 00:45:40;;;;;;;9.80;5.63;;;;;;;;;;3560598;40;20772;-72
2021/04/16 00:48:08;;;;;;;10.37;6.63;;;;;;;;;;3569889;40;20408;-72
2021/04/16 00:50:41;;;;;;;6.30;5.70;;;;;;;;;;3564056;40;20404;-72
2021/04/16 00:53:07;;;;;;;7.10;6.07;;;;;;;;;;3572913;40;20422;-72
2021/04/16 00:55:33;;;;;;;6.20;5.60;;;;;;;;;;3560176;40;20413;-72
2021/04/16 00:57:59;;;;;;;10.63;6.53;;;;;;;;;;3567865;40;20460;-72
2021/04/16 01:00:26;;;;;;;7.30;6.60;;;;;;;;;;3560982;40;20486;-72
2021/04/16 01:02:52;;;;;;;6.63;6.03;;;;;;;;;;3622393;22;21203;-74
2021/04/16 01:05:19;;;;;;;7.00;5.73;;;;;;;;;;3557423;40;20376;-77
2021/04/16 01:07:45;;;;;;;5.80;5.20;;;;;;;;;;3564364;40;20526;-77
2021/04/16 01:10:11;;;;;;;7.17;6.00;;;;;;;;;;3558244;40;20427;-77
2021/04/16 01:12:37;;;;;;;8.70;6.17;;;;;;;;;;3565296;40;20380;-76
2021/04/16 01:15:16;;;;;;;7.00;5.73;;;;;;;;;;3564242;40;20399;-76
2021/04/16 01:17:46;;;;;;;6.97;6.20;;;;;;;;;;3564471;40;20394;-76
2021/04/16 01:20:17;;;;;;;6.30;5.70;;;;;;;;;;3566471;40;20486;-77
2021/04/16 01:22:49;;;;;;;6.90;5.53;;;;;;;;;;3559798;40;20384;-76
2021/04/16 01:25:16;;;;;;;9.50;6.23;;;;;;;;;;3566774;40;20918;-74
2021/04/16 01:27:42;;;;;;;9.70;6.77;;;;;;;;;;3566349;40;20412;-75
2021/04/16 01:30:11;;;;;;;6.60;5.97;;;;;;;;;;3557585;40;20450;-75
2021/04/16 01:32:37;;;;;;;8.13;6.40;;;;;;;;;;3555310;40;20412;-75
2021/04/16 01:35:14;;;;;;;7.73;6.90;;;;;;;;;;3563329;40;20401;-75
2021/04/16 01:37:40;;;;;;;6.57;5.97;;;;;;;;;;3568171;40;20388;-75
2021/04/16 01:40:07;;;;;;;6.43;5.83;;;;;;;;;;3569200;40;20971;-75
2021/04/16 01:42:33;;;;;;;7.30;6.70;;;;;;;;;;3566676;40;21263;-75
2021/04/16 01:44:59;;;;;;;7.30;6.07;;;;;;;;;;3564609;40;20378;-75
2021/04/16 01:47:26;;;;;;;7.13;6.53;;;;;;;;;;3563096;40;22594;-75
2021/04/16 01:49:53;;;;;;;7.00;6.33;;;;;;;;;;3564259;40;20442;-76
2021/04/16 01:52:20;;;;;;;7.97;5.80;;;;;;;;;;3565021;40;20525;-76
2021/04/16 01:54:49;;;;;;;6.87;6.13;;;;;;;;;;3565003;40;20466;-76
2021/04/16 01:57:17;;;;;;;6.80;6.10;;;;;;;;;;3568713;40;20555;-76
2021/04/16 01:59:44;;;;;;;7.40;6.10;;;;;;;;;;3565492;40;23303;-76
2021/04/16 02:02:12;;;;;;;6.73;5.73;;;;;;;;;;3558260;40;20416;-76
2021/04/16 02:04:38;;;;;;;7.97;5.70;;;;;;;;;;3579874;40;20383;-77
2021/04/16 02:07:04;;;;;;;7.40;6.00;;;;;;;;;;3565983;40;20395;-77
2021/04/16 02:09:32;;;;;;;10.60;6.40;;;;;;;;;;3580236;40;20410;-76
2021/04/16 02:11:58;;;;;;;8.03;7.00;;;;;;;;;;3574455;40;20375;-76
2021/04/16 02:14:25;;;;;;;10.83;6.90;;;;;;;;;;3567394;40;20408;-77
2021/04/16 02:16:54;;;;;;;6.30;5.80;;;;;;;;;;3579617;40;21307;-75
2021/04/16 02:19:20;;;;;;;7.10;6.40;;;;;;;;;;3578763;40;20835;-76
2021/04/16 02:21:46;;;;;;;6.43;5.83;;;;;;;;;;3569106;40;21884;-76
2021/04/16 02:24:12;;;;;;;6.70;5.87;;;;;;;;;;3567770;40;21089;-76
2021/04/16 02:26:38;;;;;;;7.33;6.50;;;;;;;;;;3566200;40;20395;-77
2021/04/16 02:29:08;;;;;;;6.60;6.00;;;;;;;;;;3577961;40;20387;-76
2021/04/16 02:31:34;;;;;;;7.73;6.57;;;;;;;;;;3578776;40;20411;-77
2021/04/16 02:34:01;;;;;;;7.50;6.50;;;;;;;;;;3567961;40;20416;-76
2021/04/16 02:36:27;;;;;;;10.70;6.10;;;;;;;;;;3570199;40;20438;-76
2021/04/16 02:38:53;;;;;;;6.90;6.20;;;;;;;;;;3580335;40;20423;-76
2021/04/16 02:41:19;;;;;;;6.73;5.80;;;;;;;;;;3567870;40;20431;-76
2021/04/16 02:43:46;;;;;;;8.13;6.53;;;;;;;;;;3578560;40;20837;-75
2021/04/16 02:46:12;;;;;;;11.50;7.07;;;;;;;;;;3578696;40;20387;-75
2021/04/16 02:48:38;;;;;;;7.70;6.90;;;;;;;;;;3577897;40;20840;-76
2021/04/16 02:51:04;;;;;;;11.57;6.77;;;;;;;;;;3566724;40;20421;-75
2021/04/16 02:53:30;;;;;;;8.17;6.47;;;;;;;;;;3562600;40;20388;-75
2021/04/16 02:55:56;;;;;;;7.13;6.43;;;;;;;;;;3568514;40;20540;-75
2021/04/16 02:58:22;;;;;;;7.90;7.20;;;;;;;;;;3577215;40;20383;-75
2021/04/16 03:00:48;;;;;;;11.50;6.77;;;;;;;;;;3573978;40;20425;-75
2021/04/16 03:03:14;;;;;;;8.30;7.50;;;;;;;;;;3575514;40;20388;-75
2021/04/16 03:05:40;;;;;;;7.67;6.93;;;;;;;;;;3575405;40;20417;-75
2021/04/16 03:08:06;;;;;;;7.17;6.23;;;;;;;;;;3577308;40;20377;-75
2021/04/16 03:10:34;;;;;;;9.80;6.50;;;;;;;;;;3576285;40;20371;-75
2021/04/16 03:13:00;;;;;;;8.67;6.80;;;;;;;;;;3569488;40;20539;-75
2021/04/16 03:15:26;;;;;;;8.50;6.27;;;;;;;;;;3576721;40;20516;-75
2021/04/16 03:17:52;;;;;;;7.27;6.20;;;;;;;;;;3578091;40;20423;-75
2021/04/16 03:20:20;;;;;;;6.70;6.10;;;;;;;;;;3578043;40;20391;-75
2021/04/16 03:22:46;;;;;;;8.23;6.80;;;;;;;;;;3567120;40;20376;-75
2021/04/16 03:25:13;;;;;;;13.67;7.10;;;;;;;;;;3569226;40;20453;-75
2021/04/16 03:27:40;;;;;;;6.87;5.63;;;;;;;;;;3567373;40;20502;-75
2021/04/16 03:30:08;;;;;;;8.70;7.00;;;;;;;;;;3578249;40;20387;-75
2021/04/16 03:32:34;;;;;;;8.87;6.27;;;;;;;;;;3578015;40;20408;-75
2021/04/16 03:35:00;;;;;;;6.30;5.70;;;;;;;;;;3573478;40;20420;-75
2021/04/16 03:37:26;;;;;;;7.77;7.00;;;;;;;;;;3575752;40;20423;-75
2021/04/16 03:39:52;;;;;;;16.83;6.60;;;;;;;;;;3566929;40;20408;-76
2021/04/16 03:42:18;;;;;;;8.03;6.83;;;;;;;;;;3549842;40;20420;-75
2021/04/16 03:44:44;;;;;;;7.10;6.40;;;;;;;;;;3578348;40;20385;-75
2021/04/16 03:47:10;;;;;;;12.50;6.83;;;;;;;;;;3565934;40;20609;-74
2021/04/16 03:49:36;;;;;;;6.93;6.33;;;;;;;;;;3577043;40;20424;-75
2021/04/16 03:52:03;;;;;;;7.50;6.80;;;;;;;;;;3566624;40;21005;-74
2021/04/16 03:54:29;;;;;;;10.57;7.00;;;;;;;;;;3567637;40;20401;-75
2021/04/16 03:56:56;;;;;;;12.00;6.73;;;;;;;;;;3557307;40;20511;-75
2021/04/16 03:59:23;;;;;;;12.00;7.77;;;;;;;;;;3567960;40;20405;-75
2021/04/16 04:01:49;;;;;;;7.87;6.67;;;;;;;;;;3565012;40;20457;-75
2021/04/16 04:04:15;;;;;;;7.20;6.50;;;;;;;;;;3565495;39;20428;-75
2021/04/16 04:06:42;;;;;;;7.27;6.53;;;;;;;;;;3564480;40;21150;-75
2021/04/16 04:09:08;;;;;;;9.77;7.30;;;;;;;;;;3555766;40;20486;-75
2021/04/16 04:11:34;;;;;;;10.17;7.53;;;;;;;;;;3562460;40;20386;-75
2021/04/16 04:14:01;;;;;;;9.93;7.97;;;;;;;;;;3561782;40;20518;-75
2021/04/16 04:16:28;;;;;;;11.30;8.03;;;;;;;;;;3562064;40;20454;-75
2021/04/16 04:18:55;;;;;;;14.00;7.73;;;;;;;;;;3555887;40;20385;-75
2021/04/16 04:21:21;;;;;;;8.87;7.97;;;;;;;;;;3557241;40;20417;-75
2021/04/16 04:23:47;;;;;;;8.40;7.60;;;;;;;;;;3566108;40;20699;-75
2021/04/16 04:26:13;;;;;;;10.20;8.90;;;;;;;;;;3547355;40;20400;-75
2021/04/16 04:28:39;;;;;;;12.70;8.83;;;;;;;;;;3566921;40;20800;-75
2021/04/16 04:31:05;;;;;;;8.03;6.80;;;;;;;;;;3564287;40;20392;-75
2021/04/16 04:33:31;;;;;;;11.63;7.47;;;;;;;;;;3556947;40;20425;-77
2021/04/16 04:35:57;;;;;;;10.47;9.13;;;;;;;;;;3566998;40;20400;-76
2021/04/16 04:38:23;;;;;;;11.30;8.47;;;;;;;;;;3559044;40;20484;-76
2021/04/16 04:40:50;;;;;;;10.53;7.77;;;;;;;;;;3566555;40;20362;-75
2021/04/16 04:43:16;;;;;;;11.70;9.13;;;;;;;;;;3556354;40;20405;-75
2021/04/16 04:45:42;;;;;;;10.03;7.90;;;;;;;;;;3566801;40;20384;-75
2021/04/16 04:48:09;;;;;;;11.00;8.17;;;;;;;;;;3564885;40;20381;-75
2021/04/16 04:50:35;;;;;;;8.93;8.03;;;;;;;;;;3541860;40;21153;-75
2021/04/16 04:53:01;;;;;;;11.83;8.30;;;;;;;;;;3558855;40;20452;-75
2021/04/16 04:55:28;;;;;;;10.23;8.83;;;;;;;;;;3564342;40;20515;-75
2021/04/16 04:57:55;;;;;;;10.97;7.97;;;;;;;;;;3565234;40;20418;-75
2021/04/16 05:00:21;;;;;;;12.03;9.13;;;;;;;;;;3555595;40;20467;-76
2021/04/16 05:02:47;;;;;;;10.60;9.03;;;;;;;;;;3569242;39;21606;-76
2021/04/16 05:05:14;;;;;;;11.07;9.67;;;;;;;;;;3568832;40;20421;-76
2021/04/16 05:07:41;;;;;;;11.00;9.87;;;;;;;;;;3574108;40;20450;-76
2021/04/16 05:10:07;;;;;;;10.10;8.20;;;;;;;;;;3571274;40;20394;-76
2021/04/16 05:12:34;;;;;;;11.90;9.00;;;;;;;;;;3557992;40;20519;-76
2021/04/16 05:15:00;;;;;;;16.30;10.13;;;;;;;;;;3574977;40;20416;-76
2021/04/16 05:17:27;;;;;;;9.40;8.50;;;;;;;;;;3575785;40;20434;-76
2021/04/16 05:19:53;;;;;;;11.93;8.60;;;;;;;;;;3576694;40;20375;-75
2021/04/16 05:22:19;;;;;;;14.27;10.40;;;;;;;;;;3574326;40;20421;-76
2021/04/16 05:24:45;;;;;;;11.33;7.63;;;;;;;;;;3574749;40;20456;-76
2021/04/16 05:27:12;;;;;;;11.90;9.43;;;;;;;;;;3567815;40;20416;-76
2021/04/16 05:29:39;;;;;;;11.13;8.60;;;;;;;;;;3572953;40;20369;-76
2021/04/16 05:32:06;;;;;;;9.73;8.73;;;;;;;;;;3574206;40;20409;-76
2021/04/16 05:34:32;;;;;;;14.87;9.60;;;;;;;;;;3572895;40;20429;-76
2021/04/16 05:36:59;;;;;;;11.77;9.00;;;;;;;;;;3549009;40;20508;-76
2021/04/16 05:39:25;;;;;;;10.93;9.37;;;;;;;;;;3570314;40;20437;-76
2021/04/16 05:41:51;;;;;;;10.80;9.70;;;;;;;;;;3571371;40;20402;-76
2021/04/16 05:44:18;;;;;;;10.77;9.10;;;;;;;;;;3567582;40;20482;-76
2021/04/16 05:46:44;;;;;;;9.53;8.53;;;;;;;;;;3573418;40;22429;-76
2021/04/16 05:49:13;;;;;;;12.67;10.10;;;;;;;;;;3572410;40;20370;-76
2021/04/16 05:51:39;;;;;;;17.50;11.13;;;;;;;;;;3573855;40;20764;-76
2021/04/16 05:54:06;;;;;;;13.77;9.60;;;;;;;;;;3575934;40;20402;-76
2021/04/16 05:56:32;;;;;;;10.40;8.87;;;;;;;;;;3578061;40;20777;-75
2021/04/16 05:58:58;;;;;;;10.27;8.57;;;;;;;;;;3561182;40;20489;-76
2021/04/16 06:01:24;;;;;;;10.00;9.00;;;;;;;;;;3557203;40;20441;-75
2021/04/16 06:03:50;;;;;;;22.20;8.83;;;;;;;;;;3560725;40;20784;-76
2021/04/16 06:06:17;;;;;;;14.83;10.50;;;;;;;;;;3570974;40;20704;-75
2021/04/16 06:08:44;;;;;;;14.83;10.17;;;;;;;;;;3558756;40;20527;-75
2021/04/16 06:11:10;;;;;;;17.17;10.30;;;;;;;;;;3571141;40;20415;-76
2021/04/16 06:13:37;;;;;;;13.97;10.37;;;;;;;;;;3570492;40;20384;-76
2021/04/16 06:16:04;;;;;;;12.73;9.07;;;;;;;;;;3556703;40;20388;-75
2021/04/16 06:18:30;;;;;;;9.67;8.77;;;;;;;;;;3557280;40;20432;-75
2021/04/16 06:20:56;;;;;;;10.13;8.93;;;;;;;;;;3557482;40;20428;-75
2021/04/16 06:23:22;;;;;;;9.37;8.47;;;;;;;;;;3555037;40;20524;-74
2021/04/16 06:25:48;;;;;;;11.07;9.90;;;;;;;;;;3568078;40;20415;-74
2021/04/16 06:28:15;;;;;;;9.17;8.37;;;;;;;;;;3555153;40;21142;-75
2021/04/16 06:30:43;;;;;;;9.17;8.27;;;;;;;;;;3560924;40;20404;-74
2021/04/16 06:33:18;;;;;;;11.93;8.90;;;;;;;;;;3564008;40;20417;-74
2021/04/16 06:35:50;;;;;;;9.20;8.20;;;;;;;;;;3561091;40;20473;-75
2021/04/16 06:38:18;;;;;;;8.50;7.70;;;;;;;;;;3566453;40;20373;-74
2021/04/16 06:40:46;;;;;;;10.57;9.47;;;;;;;;;;3562235;40;21243;-75
2021/04/16 06:43:12;;;;;;;9.23;8.10;;;;;;;;;;3550284;40;20501;-74
2021/04/16 06:45:38;;;;;;;8.83;7.13;;;;;;;;;;3562562;40;20442;-75
2021/04/16 06:48:06;;;;;;;8.20;7.47;;;;;;;;;;3560625;40;20395;-74
2021/04/16 06:50:34;;;;;;;8.37;7.40;;;;;;;;;;3542882;40;20433;-74
2021/04/16 06:53:26;;;;;;;9.07;8.07;;;;;;;;;;3566030;40;22225;-74
2021/04/16 06:56:04;;;;;;;9.17;8.13;;;;;;;;;;3553595;40;20502;-75
2021/04/16 06:58:30;;;;;;;9.57;7.67;;;;;;;;;;3565066;40;20404;-75
2021/04/16 07:01:03;;;;;;;8.57;7.77;;;;;;;;;;3559310;40;20915;-75
2021/04/16 07:03:49;;;;;;;7.60;6.90;;;;;;;;;;3553534;40;20423;-75
2021/04/16 07:06:27;;;;;;;7.17;6.40;;;;;;;;;;3562962;40;20545;-75
2021/04/16 07:09:06;;;;;;;8.50;7.60;;;;;;;;;;3561334;40;20392;-75
2021/04/16 07:11:33;;;;;;;7.50;6.77;;;;;;;;;;3575410;40;20503;-75
2021/04/16 07:14:01;;;;;;;8.33;6.63;;;;;;;;;;3562138;40;20425;-75
2021/04/16 07:16:28;;;;;;;9.50;8.70;;;;;;;;;;3574023;40;20800;-75
2021/04/16 07:18:57;;;;;;;10.40;7.20;;;;;;;;;;3552131;40;21250;-75
2021/04/16 07:21:23;;;;;;;10.17;7.20;;;;;;;;;;3562584;40;20393;-75
2021/04/16 07:23:51;;;;;;;9.33;7.50;;;;;;;;;;3558004;40;20430;-75
2021/04/16 07:26:36;;;;;;;8.00;7.20;;;;;;;;;;3567607;40;20458;-74
2021/04/16 07:29:03;;;;;;;7.37;5.80;;;;;;;;;;3565324;40;20449;-74
2021/04/16 07:31:42;;;;;;;6.70;6.10;;;;;;;;;;3552784;40;20408;-74
2021/04/16 07:34:15;;;;;;;7.93;7.20;;;;;;;;;;3561175;40;21024;-74
2021/04/16 07:36:42;;;;;;;9.00;7.70;;;;;;;;;;3551113;40;20903;-74
2021/04/16 07:39:14;;;;;;;7.40;6.20;;;;;;;;;;3563646;40;20880;-74
2021/04/16 07:41:42;;;;;;;7.80;6.00;;;;;;;;;;3552692;40;20940;-75
2021/04/16 07:44:15;;;;;;;8.23;6.57;;;;;;;;;;3554147;40;20421;-74
2021/04/16 07:46:42;;;;;;;8.33;7.60;;;;;;;;;;3563277;40;20406;-74
2021/04/16 07:49:12;;;;;;;7.53;6.93;;;;;;;;;;3556941;40;20508;-74
2021/04/16 07:51:38;;;;;;;9.33;7.77;;;;;;;;;;3564264;40;20904;-74
2021/04/16 07:54:16;;;;;;;8.50;7.70;;;;;;;;;;3563106;40;20856;-74
2021/04/16 07:56:43;;;;;;;7.97;7.20;;;;;;;;;;3553965;40;20436;-74
2021/04/16 07:59:11;;;;;;;10.40;8.77;;;;;;;;;;3564341;40;20405;-74
2021/04/16 08:01:38;;;;;;;8.33;7.53;;;;;;;;;;3553439;40;20421;-74
2021/04/16 08:04:08;;;;;;;9.50;8.00;;;;;;;;;;3553662;40;20438;-74
2021/04/16 08:06:39;;;;;;;9.13;7.93;;;;;;;;;;3565854;40;20985;-74
2021/04/16 08:09:09;;;;;;;9.80;7.50;;;;;;;;;;3560765;40;20999;-74
2021/04/16 08:11:35;;;;;;;7.53;6.83;;;;;;;;;;3551131;40;20981;-74
2021/04/16 08:14:03;;;;;;;7.90;7.20;;;;;;;;;;3553250;40;20438;-74
2021/04/16 08:16:31;;;;;;;10.33;8.10;;;;;;;;;;3562971;40;20965;-74
2021/04/16 08:18:57;;;;;;;7.50;6.90;;;;;;;;;;3560653;40;20483;-74
2021/04/16 08:21:24;;;;;;;6.63;6.10;;;;;;;;;;3556226;40;20410;-75
2021/04/16 08:23:50;;;;;;;6.27;5.70;;;;;;;;;;3536080;40;20522;-74
2021/04/16 08:26:17;;;;;;;13.10;6.73;;;;;;;;;;3564057;40;20432;-75
2021/04/16 08:28:55;;;;;;;5.53;5.23;;;;;;;;;;3562351;40;20786;-74
2021/04/16 08:31:26;;;;;;;7.03;6.53;;;;;;;;;;3561212;40;20445;-74
2021/04/16 08:33:57;;;;;;;10.43;5.83;;;;;;;;;;3561970;40;20457;-74
2021/04/16 08:36:29;;;;;;;9.90;7.13;;;;;;;;;;3552935;40;20431;-74
2021/04/16 08:38:57;;;;;;;6.63;5.53;;;;;;;;;;3552453;40;20449;-74
2021/04/16 08:41:24;;;;;;;5.67;5.17;;;;;;;;;;3562585;40;20409;-75
2021/04/16 08:43:53;;;;;;;6.20;4.67;;;;;;;;;;3553741;40;20426;-75
2021/04/16 08:46:37;;;;;;;5.40;4.90;;;;;;;;;;3555009;40;20453;-74
2021/04/16 08:49:10;;;;;;;5.40;4.20;;;;;;;;;;3564325;40;20413;-74
2021/04/16 08:51:37;;;;;;;4.87;3.57;;;;;;;;;;3554112;40;20429;-75
2021/04/16 08:54:07;;;;;;;4.20;3.90;;;;;;;;;;3562982;40;20511;-75
2021/04/16 08:56:41;;;;;;;5.50;4.50;;;;;;;;;;3555580;40;20405;-75
2021/04/16 08:59:10;;;;;;;4.60;4.20;;;;;;;;;;3554522;40;20431;-74
2021/04/16 09:01:39;;;;;;;6.37;4.40;;;;;;;;;;3561114;40;21104;-74
2021/04/16 09:04:15;;;;;;;5.20;3.90;;;;;;;;;;3555041;39;20501;-74
2021/04/16 09:06:41;;;;;;;4.63;4.23;;;;;;;;;;3554168;40;20855;-75
2021/04/16 09:09:10;;;;;;;4.00;3.70;;;;;;;;;;3554615;40;20446;-75
2021/04/16 09:11:43;;;;;;;3.70;3.50;;;;;;;;;;3554207;40;20402;-75
2021/04/16 09:14:10;;;;;;;7.13;3.27;;;;;;;;;;3550391;40;20456;-75
2021/04/16 09:16:36;;;;;;;4.43;4.03;;;;;;;;;;3554525;40;20544;-75
2021/04/16 09:19:21;;;;;;;5.07;4.53;;;;;;;;;;3550431;40;20965;-75
2021/04/16 09:22:22;;;;;;;4.27;3.97;;;;;;;;;;3551015;40;20601;-75
2021/04/16 09:24:51;;;;;;;4.77;4.37;;;;;;;;;;3543314;40;20421;-75
2021/04/16 09:27:26;;;;;;;6.00;5.40;;;;;;;;;;3551382;40;20433;-75
2021/04/16 09:30:08;;;;;;;3.97;3.67;;;;;;;;;;3543205;40;20557;-75
2021/04/16 09:32:35;;;;;;;4.33;3.93;;;;;;;;;;3543115;40;20417;-75
2021/04/16 09:35:10;;;;;;;4.03;3.40;;;;;;;;;;3543609;40;20499;-75
2021/04/16 09:38:02;;;;;;;4.33;4.03;;;;;;;;;;3550927;40;20492;-75
2021/04/16 09:40:30;;;;;;;5.00;4.13;;;;;;;;;;3542147;40;20462;-75
2021/04/16 09:43:11;;;;;;;5.70;5.27;;;;;;;;;;3553369;40;21045;-75
2021/04/16 09:45:38;;;;;;;4.10;3.70;;;;;;;;;;3547246;40;20595;-75
2021/04/16 09:48:06;;;;;;;5.83;3.13;;;;;;;;;;3552789;40;20512;-75
2021/04/16 09:50:34;;;;;;;4.17;3.57;;;;;;;;;;3548581;40;20405;-75
2021/04/16 09:53:16;;;;;;;2.90;2.70;;;;;;;;;;3547257;40;20471;-75
2021/04/16 09:55:58;;;;;;;4.77;4.57;;;;;;;;;;3548849;40;20398;-75
2021/04/16 09:58:39;;;;;;;4.80;2.40;;;;;;;;;;3537704;40;20438;-75
2021/04/16 10:01:07;;;;;;;4.00;3.70;;;;;;;;;;3552673;40;20450;-75
2021/04/16 10:03:33;;;;;;;4.43;4.03;;;;;;;;;;3548320;40;20480;-75
2021/04/16 10:06:00;;;;;;;5.93;4.20;;;;;;;;;;3548178;40;20445;-75
2021/04/16 10:08:28;;;;;;;3.77;3.47;;;;;;;;;;3556549;40;20409;-75
2021/04/16 10:11:01;;;;;;;4.10;3.63;;;;;;;;;;3555276;40;20445;-75
2021/04/16 10:13:30;;;;;;;4.40;4.10;;;;;;;;;;3558133;40;21795;-75
2021/04/16 10:15:57;;;;;;;4.03;3.50;;;;;;;;;;3559027;40;20420;-75
2021/04/16 10:18:29;;;;;;;7.40;3.40;;;;;;;;;;3552907;40;20591;-75
2021/04/16 10:20:55;;;;;;;5.63;3.60;;;;;;;;;;3549447;40;20489;-75
2021/04/16 10:23:30;;;;;;;4.60;4.30;;;;;;;;;;3559109;40;20425;-75
2021/04/16 10:46:50;;;;;;;3.27;2.97;;;;;;;;;;3551509;40;20523;-74
2021/04/16 12:39:03;;;;;;;4.43;4.10;;;;;;;;;;3561580;40;20441;-74
2021/04/16 12:41:38;;;;;;;4.43;4.03;;;;;;;;;;3554107;40;20820;-74
2021/04/16 12:44:05;;;;;;;6.60;6.00;;;;;;;;;;3553848;40;20499;-75
2021/04/16 12:46:34;;;;;;;4.93;4.63;;;;;;;;;;3559308;40;20465;-74
2021/04/16 12:49:01;;;;;;;4.60;4.03;;;;;;;;;;3553639;40;20453;-74
2021/04/16 12:51:33;;;;;;;5.57;5.17;;;;;;;;;;3549711;40;20433;-74
2021/04/16 12:53:59;;;;;;;4.90;4.50;;;;;;;;;;3564038;40;20891;-74
2021/04/16 12:56:29;;;;;;;5.03;4.67;;;;;;;;;;3551698;40;20781;-74
2021/04/16 12:59:00;;;;;;;4.50;4.20;;;;;;;;;;3560007;40;21236;-74
2021/04/16 13:01:28;;;;;;;4.93;4.60;;;;;;;;;;3563816;40;20603;-74
2021/04/16 13:03:54;;;;;;;5.17;4.73;;;;;;;;;;3551241;40;20468;-74
2021/04/16 13:06:24;;;;;;;5.87;5.23;;;;;;;;;;3551504;40;20488;-74
2021/04/16 13:08:50;;;;;;;4.40;4.07;;;;;;;;;;3561110;40;20480;-74
2021/04/16 13:11:16;;;;;;;4.03;3.60;;;;;;;;;;3550733;40;20926;-74
2021/04/16 13:13:42;;;;;;;4.17;3.80;;;;;;;;;;3558562;40;20829;-74
2021/04/16 13:16:09;;;;;;;4.10;3.80;;;;;;;;;;3560555;40;20543;-74
2021/04/16 13:18:36;;;;;;;4.37;4.00;;;;;;;;;;3543275;40;20426;-74
2021/04/16 13:21:04;;;;;;;5.27;4.90;;;;;;;;;;3562297;40;20425;-74
2021/04/16 13:23:30;;;;;;;4.87;4.47;;;;;;;;;;3566159;40;22034;-74
2021/04/16 13:25:56;;;;;;;5.67;5.20;;;;;;;;;;3563980;40;20911;-74
2021/04/16 13:28:23;;;;;;;4.23;3.93;;;;;;;;;;3552084;40;20436;-74
2021/04/16 13:30:49;;;;;;;4.20;3.90;;;;;;;;;;3562741;40;20440;-74
2021/04/16 13:33:18;;;;;;;3.60;3.30;;;;;;;;;;3543877;40;20439;-74
2021/04/16 13:35:49;;;;;;;3.70;3.37;;;;;;;;;;3553035;40;21673;-74
2021/04/16 13:38:21;;;;;;;4.10;3.50;;;;;;;;;;3560710;40;20485;-74
2021/04/16 13:40:47;;;;;;;4.53;3.90;;;;;;;;;;3551705;40;20718;-74
2021/04/16 13:43:13;;;;;;;3.87;3.57;;;;;;;;;;3551331;40;21080;-74
2021/04/16 13:45:40;;;;;;;3.77;3.40;;;;;;;;;;3551611;40;20834;-75
2021/04/16 13:48:06;;;;;;;3.43;3.20;;;;;;;;;;3563439;40;20425;-74
2021/04/16 13:50:32;;;;;;;4.17;3.80;;;;;;;;;;3560765;40;20447;-75
2021/04/16 13:52:58;;;;;;;3.33;3.13;;;;;;;;;;3556520;40;20440;-74
2021/04/16 13:55:28;;;;;;;11.83;4.77;;;;;;;;;;3561419;40;20747;-74
2021/04/16 13:57:54;;;;;;;4.10;3.80;;;;;;;;;;3561956;40;20401;-74
2021/04/16 14:00:26;;;;;;;4.57;3.50;;;;;;;;;;3562604;40;20473;-74
2021/04/16 14:02:54;;;;;;;3.77;3.37;;;;;;;;;;3553664;40;20449;-74
2021/04/16 14:05:26;;;;;;;4.60;4.20;;;;;;;;;;3560897;40;20675;-74
2021/04/16 14:07:53;;;;;;;3.80;3.50;;;;;;;;;;3564876;40;20879;-74
2021/04/16 14:10:24;;;;;;;3.50;3.20;;;;;;;;;;3563668;40;20425;-74
2021/04/16 14:12:50;;;;;;;3.60;2.90;;;;;;;;;;3560821;40;20561;-74
2021/04/16 14:15:17;;;;;;;4.80;3.57;;;;;;;;;;3565173;40;20867;-74
2021/04/16 14:17:49;;;;;;;5.97;4.23;;;;;;;;;;3565252;40;20425;-74
2021/04/16 14:20:21;;;;;;;3.53;3.23;;;;;;;;;;3562210;40;20428;-74
2021/04/16 14:22:49;;;;;;;4.10;3.73;;;;;;;;;;3545634;40;20462;-74
2021/04/16 14:25:26;;;;;;;4.63;4.30;;;;;;;;;;3563668;40;20440;-74
2021/04/16 14:27:52;;;;;;;4.30;3.90;;;;;;;;;;3552949;40;20455;-74
2021/04/16 14:30:21;;;;;;;4.23;3.30;;;;;;;;;;3536639;40;21309;-74
2021/04/16 14:32:49;;;;;;;4.23;3.77;;;;;;;;;;3559915;40;20535;-74
2021/04/16 14:35:15;;;;;;;3.80;3.50;;;;;;;;;;3561669;40;20550;-74
2021/04/16 14:37:41;;;;;;;4.10;3.73;;;;;;;;;;3552958;40;20863;-74
2021/04/16 14:40:07;;;;;;;3.73;3.43;;;;;;;;;;3560476;40;20506;-74
2021/04/16 14:42:33;;;;;;;5.03;3.57;;;;;;;;;;3553469;40;20601;-74
2021/04/16 14:44:59;;;;;;;5.87;4.30;;;;;;;;;;3544263;40;20519;-74
2021/04/16 14:47:25;;;;;;;6.03;4.60;;;;;;;;;;3560921;40;20623;-74
2021/04/16 14:49:51;;;;;;;5.77;4.77;;;;;;;;;;3561415;40;20429;-74
2021/04/16 14:52:19;;;;;;;4.90;4.47;;;;;;;;;;3554131;40;20491;-74
2021/04/16 14:54:49;;;;;;;4.63;4.33;;;;;;;;;;3551068;40;20471;-74
2021/04/16 14:57:24;;;;;;;4.70;3.60;;;;;;;;;;3563520;40;20538;-74
2021/04/16 14:59:51;;;;;;;4.23;3.83;;;;;;;;;;3560178;40;20857;-74
2021/04/16 15:02:17;;;;;;;3.80;3.53;;;;;;;;;;3563976;40;20418;-74
2021/04/16 15:04:43;;;;;;;3.43;3.23;;;;;;;;;;3548658;39;21648;-74
2021/04/16 15:07:10;;;;;;;3.20;3.00;;;;;;;;;;3540070;40;20413;-74
2021/04/16 15:09:53;;;;;;;3.00;2.80;;;;;;;;;;3542828;40;20881;-74
2021/04/16 15:12:21;;;;;;;4.07;3.63;;;;;;;;;;3542280;40;20957;-75
2021/04/16 15:14:47;;;;;;;3.90;3.63;;;;;;;;;;3550094;40;20449;-74
2021/04/16 15:17:15;;;;;;;3.60;3.30;;;;;;;;;;3542364;40;20422;-74
2021/04/16 15:19:44;;;;;;;4.40;3.50;;;;;;;;;;3555873;40;20674;-74
2021/04/16 15:22:12;;;;;;;2.60;2.43;;;;;;;;;;3558775;40;20702;-74
2021/04/16 15:24:39;;;;;;;3.53;3.03;;;;;;;;;;3542024;40;20910;-74
2021/04/16 15:27:05;;;;;;;5.70;3.93;;;;;;;;;;3542067;40;20445;-74
2021/04/16 15:29:39;;;;;;;4.00;3.70;;;;;;;;;;3552151;40;20417;-74
2021/04/16 15:32:07;;;;;;;4.07;3.60;;;;;;;;;;3543390;40;20465;-74
2021/04/16 15:48:05;;;;;;;3.60;3.33;;;;;;;;;;3557742;40;20414;-74
2021/04/16 15:50:36;;;;;;;3.90;3.50;;;;;;;;;;3556925;40;21123;-74
2021/04/16 15:53:03;;;;;;;3.57;3.27;;;;;;;;;;3557822;40;20651;-74
2021/04/16 15:55:29;;;;;;;3.87;3.57;;;;;;;;;;3561252;40;20523;-74
2021/04/16 15:57:56;;;;;;;3.00;2.70;;;;;;;;;;3553272;40;20414;-74
2021/04/16 16:00:31;;;;;;;3.93;3.53;;;;;;;;;;3557316;40;20843;-74
2021/04/16 16:02:57;;;;;;;3.93;3.43;;;;;;;;;;3552823;39;20890;-74
2021/04/16 16:05:23;;;;;;;3.70;3.37;;;;;;;;;;3572238;40;20496;-74
2021/04/16 16:07:49;;;;;;;5.70;4.60;;;;;;;;;;3564081;40;20419;-74
2021/04/16 16:10:17;;;;;;;6.90;4.60;;;;;;;;;;3574125;40;20421;-74
2021/04/16 16:12:47;;;;;;;6.33;4.00;;;;;;;;;;3567275;40;20378;-74
2021/04/16 16:15:17;;;;;;;3.10;2.90;;;;;;;;;;3560553;40;20593;-75
2021/04/16 16:17:44;;;;;;;4.27;3.20;;;;;;;;;;3574347;40;20409;-73
2021/04/16 16:20:13;;;;;;;4.00;3.60;;;;;;;;;;3559980;40;20421;-73
2021/04/16 16:22:39;;;;;;;3.27;3.03;;;;;;;;;;3571469;40;20397;-73
2021/04/16 16:25:06;;;;;;;4.90;3.70;;;;;;;;;;3570996;40;20401;-73
2021/04/16 16:27:34;;;;;;;4.77;4.37;;;;;;;;;;3568344;40;20717;-73
2021/04/16 16:30:00;;;;;;;3.97;3.50;;;;;;;;;;3557163;40;20720;-75
2021/04/16 16:32:31;;;;;;;5.37;4.23;;;;;;;;;;3566456;40;20364;-73
2021/04/16 16:34:57;;;;;;;3.27;3.07;;;;;;;;;;3569605;40;20571;-74
2021/04/16 16:37:24;;;;;;;4.60;4.20;;;;;;;;;;3566108;40;20417;-77
2021/04/16 16:39:50;;;;;;;3.50;3.20;;;;;;;;;;3562283;40;20415;-74
2021/04/16 16:42:39;;;;;;;4.67;3.40;;;;;;;;;;3573671;40;20918;-74
2021/04/16 16:45:06;;;;;;;3.93;3.63;;;;;;;;;;3570139;40;20438;-75
2021/04/16 16:47:32;;;;;;;5.07;4.57;;;;;;;;;;3571213;40;20927;-75
2021/04/16 16:49:58;;;;;;;4.67;4.37;;;;;;;;;;3568677;40;20534;-75
2021/04/16 16:52:26;;;;;;;5.10;4.60;;;;;;;;;;3572492;40;20401;-75
2021/04/16 16:54:52;;;;;;;6.60;4.70;;;;;;;;;;3566938;40;20479;-75
2021/04/16 16:57:21;;;;;;;15.00;5.50;;;;;;;;;;3565284;40;20698;-75
2021/04/16 16:59:47;;;;;;;5.10;4.60;;;;;;;;;;3576375;40;20509;-76
2021/04/16 17:02:15;;;;;;;5.83;4.10;;;;;;;;;;3571578;40;20739;-79
2021/04/16 17:04:46;;;;;;;3.30;3.07;;;;;;;;;;3570204;40;20422;-76
2021/04/16 17:07:12;;;;;;;4.10;3.77;;;;;;;;;;3573723;40;20424;-76
2021/04/16 17:09:38;;;;;;;5.13;4.73;;;;;;;;;;3557279;40;21196;-76
2021/04/16 17:12:05;;;;;;;7.13;4.57;;;;;;;;;;3579827;40;20381;-76